Time;durP1;ratioP1;P1;durP2;ratioP2;P2;SDS_P1;SDS_P2;PMS_P1;PMS_P2;Temp;Humidity;BMP_temperature;BMP_pressure;BME280_temperature;BME280_humidity;BME280_pressure;Samples;Min_cycle;Max_cycle;Signal;HPM_P1;HPM_P2
2023/03/20 00:01:56;;;;;;;56.97;31.30;;;;;;;;;;4421119;32;318374;-88
2023/03/20 00:04:24;;;;;;;59.13;31.37;;;;;;;;;;4409982;32;318334;-88
2023/03/20 00:06:51;;;;;;;62.93;33.73;;;;;;;;;;4420975;32;319394;-88
2023/03/20 00:09:18;;;;;;;57.23;33.03;;;;;;;;;;4410909;32;319307;-88
2023/03/20 00:11:48;;;;;;;63.10;35.17;;;;;;;;;;4420551;32;318558;-90
2023/03/20 00:14:17;;;;;;;58.60;32.23;;;;;;;;;;4411612;32;318405;-87
2023/03/20 00:16:47;;;;;;;45.47;26.47;;;;;;;;;;4420400;32;319342;-88
2023/03/20 00:19:16;;;;;;;49.10;23.23;;;;;;;;;;4420003;32;319083;-88
2023/03/20 00:21:44;;;;;;;38.27;20.37;;;;;;;;;;4406910;32;418082;-88
2023/03/20 00:24:11;;;;;;;38.00;20.53;;;;;;;;;;4420825;32;319076;-88
2023/03/20 00:26:39;;;;;;;40.07;20.27;;;;;;;;;;4410735;32;318544;-88
2023/03/20 00:29:07;;;;;;;35.97;21.70;;;;;;;;;;4419849;32;318544;-88
2023/03/20 00:31:36;;;;;;;41.10;21.73;;;;;;;;;;4410680;32;319561;-90
2023/03/20 00:34:06;;;;;;;40.93;22.87;;;;;;;;;;4420346;32;318628;-90
2023/03/20 00:36:34;;;;;;;39.73;20.87;;;;;;;;;;4408918;32;334464;-88
2023/03/20 00:39:01;;;;;;;34.77;20.47;;;;;;;;;;4419528;32;319165;-88
2023/03/20 00:41:31;;;;;;;31.73;18.03;;;;;;;;;;4411055;32;318566;-89
2023/03/20 00:44:00;;;;;;;33.13;17.00;;;;;;;;;;4405815;32;318476;-90
2023/03/20 00:46:28;;;;;;;29.27;15.43;;;;;;;;;;4408737;32;333229;-88
2023/03/20 00:48:55;;;;;;;27.37;14.23;;;;;;;;;;4419581;32;319098;-91
2023/03/20 00:51:23;;;;;;;33.40;16.90;;;;;;;;;;4409766;32;319261;-90
2023/03/20 00:53:50;;;;;;;22.90;14.83;;;;;;;;;;4430337;32;318258;-89
2023/03/20 00:56:32;;;;;;;26.67;16.77;;;;;;;;;;4420645;32;317221;-87
2023/03/20 00:59:01;;;;;;;30.97;18.20;;;;;;;;;;4428446;32;318331;-87
2023/03/20 01:01:28;;;;;;;32.97;19.70;;;;;;;;;;4417724;32;319495;-89
2023/03/20 01:03:55;;;;;;;34.60;20.73;;;;;;;;;;4430268;32;318469;-87
2023/03/20 01:06:23;;;;;;;42.93;20.30;;;;;;;;;;4423147;32;318068;-88
2023/03/20 01:08:50;;;;;;;34.50;18.03;;;;;;;;;;4433973;32;330706;-87
2023/03/20 01:11:23;;;;;;;27.57;17.07;;;;;;;;;;4424288;32;318167;-85
2023/03/20 01:13:51;;;;;;;23.53;14.90;;;;;;;;;;4435218;32;317052;-88
2023/03/20 01:16:20;;;;;;;32.70;18.20;;;;;;;;;;4423984;32;317205;-88
2023/03/20 01:18:47;;;;;;;31.47;18.50;;;;;;;;;;4435337;32;317967;-88
2023/03/20 01:21:14;;;;;;;32.43;17.93;;;;;;;;;;4435284;32;318033;-88
2023/03/20 01:23:42;;;;;;;31.27;17.17;;;;;;;;;;4422312;32;417334;-88
2023/03/20 01:26:21;;;;;;;28.70;15.70;;;;;;;;;;4434815;32;317306;-88
2023/03/20 01:28:48;;;;;;;28.10;16.93;;;;;;;;;;4417888;32;417887;-89
2023/03/20 01:31:16;;;;;;;37.17;17.97;;;;;;;;;;4422526;32;318327;-85
2023/03/20 01:33:43;;;;;;;36.33;19.93;;;;;;;;;;4420081;32;319221;-89
2023/03/20 01:36:11;;;;;;;38.10;20.30;;;;;;;;;;4419477;32;318801;-88
2023/03/20 01:38:38;;;;;;;32.90;20.13;;;;;;;;;;4410355;32;319347;-89
2023/03/20 01:41:11;;;;;;;37.00;19.83;;;;;;;;;;4420863;32;318658;-88
2023/03/20 01:43:38;;;;;;;41.83;24.30;;;;;;;;;;4409074;32;319310;-88
2023/03/20 01:46:16;;;;;;;50.23;26.67;;;;;;;;;;4418197;32;318612;-88
2023/03/20 01:48:59;;;;;;;48.10;23.03;;;;;;;;;;4405986;32;418384;-88
2023/03/20 01:51:27;;;;;;;41.57;22.60;;;;;;;;;;4409826;32;318846;-88
2023/03/20 01:53:59;;;;;;;40.73;22.90;;;;;;;;;;4419772;32;319511;-88
2023/03/20 01:56:30;;;;;;;45.97;26.00;;;;;;;;;;4408329;32;318482;-88
2023/03/20 01:59:02;;;;;;;42.77;23.23;;;;;;;;;;4419969;32;318812;-88
2023/03/20 02:01:29;;;;;;;47.13;27.10;;;;;;;;;;4409139;32;319364;-88
2023/03/20 02:03:57;;;;;;;49.60;26.17;;;;;;;;;;4419339;32;319238;-88
2023/03/20 02:06:25;;;;;;;49.57;27.60;;;;;;;;;;4407906;32;319389;-89
2023/03/20 02:08:52;;;;;;;47.53;26.00;;;;;;;;;;4420067;32;319170;-87
2023/03/20 02:11:22;;;;;;;45.40;25.80;;;;;;;;;;4406221;32;340721;-87
2023/03/20 02:13:54;;;;;;;56.17;32.30;;;;;;;;;;4418976;32;319889;-88
2023/03/20 02:16:21;;;;;;;45.13;26.00;;;;;;;;;;4410754;32;319451;-88
2023/03/20 02:18:51;;;;;;;44.63;25.67;;;;;;;;;;4421161;32;319105;-88
2023/03/20 02:21:52;;;;;;;45.67;23.50;;;;;;;;;;4411636;32;319390;-88
2023/03/20 02:24:52;;;;;;;45.57;25.70;;;;;;;;;;4410666;32;367920;-89
2023/03/20 02:27:30;;;;;;;41.93;24.70;;;;;;;;;;4411477;32;319708;-88
2023/03/20 02:30:33;;;;;;;50.47;27.40;;;;;;;;;;4421159;32;318616;-87
2023/03/20 02:33:34;;;;;;;45.77;24.27;;;;;;;;;;4408471;32;419042;-87
2023/03/20 02:36:33;;;;;;;47.83;25.43;;;;;;;;;;4407935;32;420253;-88
2023/03/20 02:39:13;;;;;;;63.53;32.97;;;;;;;;;;4376614;32;419013;-89
2023/03/20 02:41:46;;;;;;;81.93;36.90;;;;;;;;;;4408161;32;418116;-88
2023/03/20 02:44:21;;;;;;;77.53;38.47;;;;;;;;;;4422475;32;319726;-87
2023/03/20 02:46:57;;;;;;;95.50;47.93;;;;;;;;;;4408988;32;417694;-87
2023/03/20 02:49:39;;;;;;;88.97;45.23;;;;;;;;;;4411035;32;318343;-88
2023/03/20 02:52:15;;;;;;;84.10;45.03;;;;;;;;;;4420798;32;318074;-89
2023/03/20 02:54:50;;;;;;;87.90;45.17;;;;;;;;;;4408961;32;419312;-90
2023/03/20 02:57:23;;;;;;;87.60;43.60;;;;;;;;;;4411597;32;318684;-88
2023/03/20 02:59:56;;;;;;;75.27;41.27;;;;;;;;;;4420799;32;319450;-88
2023/03/20 03:02:30;;;;;;;72.73;35.37;;;;;;;;;;4411493;32;319623;-88
2023/03/20 03:05:03;;;;;;;58.30;30.47;;;;;;;;;;4420977;32;319534;-88
2023/03/20 03:07:33;;;;;;;43.37;26.57;;;;;;;;;;4410505;32;318712;-88
2023/03/20 03:10:06;;;;;;;41.30;22.83;;;;;;;;;;4420567;32;318980;-88
2023/03/20 03:12:36;;;;;;;41.40;24.47;;;;;;;;;;4410552;32;319510;-88
2023/03/20 03:15:13;;;;;;;36.90;21.27;;;;;;;;;;4421614;32;317954;-88
2023/03/20 03:17:48;;;;;;;45.77;26.17;;;;;;;;;;4408872;32;417205;-88
2023/03/20 03:20:22;;;;;;;45.77;25.10;;;;;;;;;;4419939;32;318497;-88
2023/03/20 03:22:50;;;;;;;45.70;27.03;;;;;;;;;;4407799;32;406898;-88
2023/03/20 03:25:18;;;;;;;54.97;27.07;;;;;;;;;;4409261;32;332043;-87
2023/03/20 03:27:49;;;;;;;40.30;23.73;;;;;;;;;;4419767;32;318214;-88
2023/03/20 03:30:18;;;;;;;53.80;24.73;;;;;;;;;;4410803;32;318418;-88
2023/03/20 03:32:50;;;;;;;45.97;25.00;;;;;;;;;;4421943;32;318340;-88
2023/03/20 03:35:20;;;;;;;47.77;26.93;;;;;;;;;;4411285;32;317640;-88
2023/03/20 03:37:54;;;;;;;44.57;24.97;;;;;;;;;;4419853;32;318292;-88
2023/03/20 03:40:31;;;;;;;38.67;21.00;;;;;;;;;;4409486;32;318169;-88
2023/03/20 03:43:03;;;;;;;26.90;19.17;;;;;;;;;;4420786;32;318271;-88
2023/03/20 03:45:35;;;;;;;26.93;17.97;;;;;;;;;;4409615;32;318418;-88
2023/03/20 03:48:06;;;;;;;25.70;17.57;;;;;;;;;;4420673;32;334951;-88
2023/03/20 03:50:39;;;;;;;27.93;16.83;;;;;;;;;;4410843;32;318311;-88
2023/03/20 03:53:10;;;;;;;26.37;16.90;;;;;;;;;;4419654;32;318251;-88
2023/03/20 03:55:43;;;;;;;39.33;20.43;;;;;;;;;;4410507;32;317798;-88
2023/03/20 03:58:13;;;;;;;27.33;16.87;;;;;;;;;;4419373;32;317547;-87
2023/03/20 04:00:42;;;;;;;32.00;18.50;;;;;;;;;;4408030;32;417222;-88
2023/03/20 04:03:10;;;;;;;29.40;18.10;;;;;;;;;;4419771;32;317659;-88
2023/03/20 04:05:41;;;;;;;35.23;19.50;;;;;;;;;;4410561;32;318297;-87
2023/03/20 04:08:07;;;;;;;38.30;19.00;;;;;;;;;;4419915;32;337490;-88
2023/03/20 04:10:34;;;;;;;32.37;19.30;;;;;;;;;;4410344;32;317812;-88
2023/03/20 04:13:03;;;;;;;30.37;19.00;;;;;;;;;;4420440;32;317479;-88
2023/03/20 04:15:30;;;;;;;38.93;21.20;;;;;;;;;;4410202;32;317586;-88
2023/03/20 04:17:57;;;;;;;34.90;22.03;;;;;;;;;;4420339;32;317728;-88
2023/03/20 04:20:25;;;;;;;44.07;27.70;;;;;;;;;;4409679;32;342346;-89
2023/03/20 04:22:51;;;;;;;42.73;25.60;;;;;;;;;;4419202;32;330582;-88
2023/03/20 04:25:22;;;;;;;60.27;33.67;;;;;;;;;;4410283;32;317674;-88
2023/03/20 04:27:49;;;;;;;76.87;41.47;;;;;;;;;;4420491;32;318351;-88
2023/03/20 04:30:17;;;;;;;111.03;51.00;;;;;;;;;;4408573;32;385640;-87
2023/03/20 04:32:44;;;;;;;259.03;97.47;;;;;;;;;;4420821;32;319305;-88
2023/03/20 04:35:11;;;;;;;293.80;111.43;;;;;;;;;;4420513;32;319610;-88
2023/03/20 04:37:38;;;;;;;308.50;114.80;;;;;;;;;;4410301;32;320377;-88
2023/03/20 04:40:06;;;;;;;283.00;106.93;;;;;;;;;;4419186;32;319733;-88
2023/03/20 04:42:33;;;;;;;263.10;100.13;;;;;;;;;;4409819;32;319918;-88
2023/03/20 04:45:00;;;;;;;202.90;83.60;;;;;;;;;;4425167;32;320936;-87
2023/03/20 04:47:28;;;;;;;169.37;68.93;;;;;;;;;;4422798;32;318453;-87
2023/03/20 04:49:55;;;;;;;140.17;60.00;;;;;;;;;;4434409;32;318007;-87
2023/03/20 04:52:22;;;;;;;98.00;43.63;;;;;;;;;;4424956;32;318269;-87
2023/03/20 04:54:49;;;;;;;53.70;28.50;;;;;;;;;;4433878;32;316483;-88
2023/03/20 04:57:16;;;;;;;59.70;29.27;;;;;;;;;;4418818;32;317249;-86
2023/03/20 04:59:43;;;;;;;53.33;26.63;;;;;;;;;;4411281;32;317942;-88
2023/03/20 05:02:13;;;;;;;67.93;41.93;;;;;;;;;;4430795;32;318111;-87
2023/03/20 05:04:42;;;;;;;73.77;43.03;;;;;;;;;;4419952;32;415723;-88
2023/03/20 05:07:09;;;;;;;76.37;40.13;;;;;;;;;;4433488;32;317257;-88
2023/03/20 05:09:35;;;;;;;59.80;36.93;;;;;;;;;;4420404;32;319109;-88
2023/03/20 05:12:02;;;;;;;70.03;36.10;;;;;;;;;;4424522;32;318407;-88
2023/03/20 05:14:29;;;;;;;74.03;41.47;;;;;;;;;;4416041;32;317838;-87
2023/03/20 05:16:56;;;;;;;84.20;50.20;;;;;;;;;;4424793;32;317416;-88
2023/03/20 05:19:23;;;;;;;68.50;41.73;;;;;;;;;;4409327;32;318062;-87
2023/03/20 05:21:51;;;;;;;59.77;36.83;;;;;;;;;;4420692;32;345734;-87
2023/03/20 05:24:18;;;;;;;65.67;38.77;;;;;;;;;;4415408;32;317629;-87
2023/03/20 05:26:45;;;;;;;64.23;37.43;;;;;;;;;;4430192;32;317524;-88
2023/03/20 05:29:12;;;;;;;74.93;39.70;;;;;;;;;;4429754;32;316902;-88
2023/03/20 05:31:39;;;;;;;67.33;34.90;;;;;;;;;;4419487;32;337481;-88
2023/03/20 05:34:06;;;;;;;64.60;34.50;;;;;;;;;;4428897;32;317458;-88
2023/03/20 05:36:33;;;;;;;67.03;36.77;;;;;;;;;;4422591;32;318411;-86
2023/03/20 05:39:01;;;;;;;188.03;74.50;;;;;;;;;;4431851;32;317153;-87
2023/03/20 05:41:28;;;;;;;183.23;74.90;;;;;;;;;;4422789;32;319207;-88
2023/03/20 05:43:55;;;;;;;92.20;48.43;;;;;;;;;;4434326;32;317983;-88
2023/03/20 05:46:21;;;;;;;73.03;37.20;;;;;;;;;;4423995;32;317886;-87
2023/03/20 05:48:48;;;;;;;85.30;36.73;;;;;;;;;;4424822;32;318573;-89
2023/03/20 05:51:15;;;;;;;65.00;36.43;;;;;;;;;;4404901;32;318057;-87
2023/03/20 05:53:42;;;;;;;68.03;38.30;;;;;;;;;;4424807;32;318077;-88
2023/03/20 05:56:11;;;;;;;80.53;39.97;;;;;;;;;;4431830;32;316020;-88
2023/03/20 05:58:38;;;;;;;72.60;42.23;;;;;;;;;;4420334;32;318206;-87
2023/03/20 06:01:05;;;;;;;84.53;44.20;;;;;;;;;;4429271;32;340532;-89
2023/03/20 06:03:32;;;;;;;98.40;45.87;;;;;;;;;;4421142;32;318069;-88
2023/03/20 06:05:59;;;;;;;86.33;46.33;;;;;;;;;;4429794;32;318203;-87
2023/03/20 06:08:26;;;;;;;80.33;45.97;;;;;;;;;;4418327;32;316273;-88
2023/03/20 06:10:53;;;;;;;87.50;47.00;;;;;;;;;;4429999;32;316137;-88
2023/03/20 06:13:21;;;;;;;90.47;48.37;;;;;;;;;;4416542;32;317588;-87
2023/03/20 06:15:48;;;;;;;91.77;54.00;;;;;;;;;;4427359;32;318055;-88
2023/03/20 06:18:15;;;;;;;89.70;54.47;;;;;;;;;;4416816;32;317912;-85
2023/03/20 06:20:42;;;;;;;108.30;54.20;;;;;;;;;;4418560;32;317355;-88
2023/03/20 06:23:09;;;;;;;109.40;55.63;;;;;;;;;;4418079;32;319322;-88
2023/03/20 06:25:35;;;;;;;108.33;54.77;;;;;;;;;;4409156;32;318836;-87
2023/03/20 06:28:02;;;;;;;95.97;53.10;;;;;;;;;;4419048;32;319318;-86
2023/03/20 06:30:30;;;;;;;96.37;53.53;;;;;;;;;;4408869;32;318436;-89
2023/03/20 06:32:58;;;;;;;119.00;60.83;;;;;;;;;;4419093;32;317971;-89
2023/03/20 06:35:29;;;;;;;117.77;67.23;;;;;;;;;;4408774;32;319087;-87
2023/03/20 06:37:56;;;;;;;128.23;72.50;;;;;;;;;;4418172;32;318515;-90
2023/03/20 06:40:23;;;;;;;91.63;50.23;;;;;;;;;;4408199;32;318545;-87
2023/03/20 06:42:50;;;;;;;76.73;46.83;;;;;;;;;;4419355;32;318323;-90
2023/03/20 06:45:16;;;;;;;89.57;47.87;;;;;;;;;;4409257;32;317578;-88
2023/03/20 06:47:45;;;;;;;70.23;44.77;;;;;;;;;;4420099;32;317524;-90
2023/03/20 06:50:13;;;;;;;80.67;44.27;;;;;;;;;;4421590;32;316156;-89
2023/03/20 06:52:40;;;;;;;65.87;36.20;;;;;;;;;;4405499;32;418497;-88
2023/03/20 06:55:08;;;;;;;67.37;35.37;;;;;;;;;;4417949;32;317661;-87
2023/03/20 06:57:35;;;;;;;59.43;33.23;;;;;;;;;;4409242;32;317782;-88
2023/03/20 07:00:02;;;;;;;49.73;27.83;;;;;;;;;;4419161;32;318400;-88
2023/03/20 07:02:28;;;;;;;41.10;23.47;;;;;;;;;;4410294;32;317620;-88
2023/03/20 07:04:57;;;;;;;31.97;21.30;;;;;;;;;;4421491;32;317660;-88
2023/03/20 07:07:24;;;;;;;36.23;18.83;;;;;;;;;;4409372;32;355434;-88
2023/03/20 07:09:51;;;;;;;37.87;20.50;;;;;;;;;;4421954;32;318015;-88
2023/03/20 07:12:18;;;;;;;43.10;19.30;;;;;;;;;;4411320;32;318183;-89
2023/03/20 07:14:45;;;;;;;32.80;17.77;;;;;;;;;;4422602;32;318125;-88
2023/03/20 07:17:13;;;;;;;25.57;16.17;;;;;;;;;;4421620;32;318503;-89
2023/03/20 07:19:40;;;;;;;26.60;15.17;;;;;;;;;;4409150;32;375302;-89
2023/03/20 07:22:15;;;;;;;30.93;17.07;;;;;;;;;;4420497;32;343066;-87
2023/03/20 07:24:41;;;;;;;23.33;15.23;;;;;;;;;;4408751;32;418203;-89
2023/03/20 07:27:08;;;;;;;34.80;16.13;;;;;;;;;;4421327;32;319504;-90
2023/03/20 07:29:35;;;;;;;27.60;16.10;;;;;;;;;;4411006;32;318570;-89
2023/03/20 07:32:02;;;;;;;20.90;13.97;;;;;;;;;;4421742;32;319658;-88
2023/03/20 07:34:29;;;;;;;31.33;15.00;;;;;;;;;;4411737;32;318737;-88
2023/03/20 07:36:56;;;;;;;27.60;13.10;;;;;;;;;;4421657;32;318852;-89
2023/03/20 07:39:25;;;;;;;23.87;13.63;;;;;;;;;;4410979;32;318556;-89
2023/03/20 07:41:52;;;;;;;22.37;13.23;;;;;;;;;;4422587;32;318698;-91
2023/03/20 07:44:19;;;;;;;23.10;12.83;;;;;;;;;;4413438;32;319292;-88
2023/03/20 07:46:46;;;;;;;20.43;12.83;;;;;;;;;;4422228;32;319528;-90
2023/03/20 07:49:13;;;;;;;23.90;12.37;;;;;;;;;;4423419;32;319640;-90
2023/03/20 07:51:41;;;;;;;17.67;12.37;;;;;;;;;;4411373;32;420918;-88
2023/03/20 07:54:08;;;;;;;24.00;10.53;;;;;;;;;;4420590;32;319276;-88
2023/03/20 07:56:36;;;;;;;22.60;12.27;;;;;;;;;;4422389;32;318237;-88
2023/03/20 07:59:03;;;;;;;17.83;11.67;;;;;;;;;;4430432;32;319083;-88
2023/03/20 08:01:30;;;;;;;19.53;11.17;;;;;;;;;;4418895;32;318898;-88
2023/03/20 08:03:57;;;;;;;16.63;10.63;;;;;;;;;;4425697;32;342776;-88
2023/03/20 08:06:23;;;;;;;22.00;11.33;;;;;;;;;;4423964;32;319284;-88
2023/03/20 08:08:51;;;;;;;25.87;12.27;;;;;;;;;;4435334;32;317275;-89
2023/03/20 08:11:18;;;;;;;23.07;13.27;;;;;;;;;;4422356;32;319014;-88
2023/03/20 08:13:47;;;;;;;19.40;12.17;;;;;;;;;;4433498;32;318358;-88
2023/03/20 08:16:13;;;;;;;24.23;12.83;;;;;;;;;;4433057;32;317318;-87
2023/03/20 08:18:41;;;;;;;17.80;11.40;;;;;;;;;;4418554;32;418076;-87
2023/03/20 08:21:08;;;;;;;17.87;11.57;;;;;;;;;;4432832;32;318733;-87
2023/03/20 08:23:35;;;;;;;19.57;12.87;;;;;;;;;;4421745;32;317162;-88
2023/03/20 08:26:02;;;;;;;31.80;16.90;;;;;;;;;;4430751;32;318220;-88
2023/03/20 08:28:29;;;;;;;21.53;14.07;;;;;;;;;;4417251;32;340894;-87
2023/03/20 08:30:57;;;;;;;16.97;11.20;;;;;;;;;;4430332;32;317420;-86
2023/03/20 08:33:24;;;;;;;22.00;11.43;;;;;;;;;;4419138;32;338273;-86
2023/03/20 08:35:57;;;;;;;17.43;11.40;;;;;;;;;;4431704;32;318314;-86
2023/03/20 08:38:24;;;;;;;14.77;10.77;;;;;;;;;;4420930;32;318133;-87
2023/03/20 08:40:51;;;;;;;27.53;11.53;;;;;;;;;;4431018;32;318037;-88
2023/03/20 08:43:18;;;;;;;29.47;16.40;;;;;;;;;;4422437;32;317224;-87
2023/03/20 08:45:44;;;;;;;16.83;10.57;;;;;;;;;;4431813;32;317719;-88
2023/03/20 08:48:25;;;;;;;14.87;10.37;;;;;;;;;;4423021;32;318549;-87
2023/03/20 08:50:52;;;;;;;10.73;7.47;;;;;;;;;;4408880;32;418817;-88
2023/03/20 08:53:18;;;;;;;11.63;8.10;;;;;;;;;;4410427;32;318504;-89
2023/03/20 08:55:48;;;;;;;17.10;9.60;;;;;;;;;;4420145;32;317541;-87
2023/03/20 08:58:15;;;;;;;19.13;10.20;;;;;;;;;;4410405;32;318276;-87
2023/03/20 09:00:42;;;;;;;11.97;7.20;;;;;;;;;;4419329;32;318671;-87
2023/03/20 09:03:13;;;;;;;10.80;6.70;;;;;;;;;;4419831;32;318001;-86
2023/03/20 09:05:41;;;;;;;15.73;7.70;;;;;;;;;;4408416;32;333101;-87
2023/03/20 09:08:08;;;;;;;12.90;7.53;;;;;;;;;;4419835;32;318414;-87
2023/03/20 09:10:35;;;;;;;13.37;7.13;;;;;;;;;;4408886;32;318153;-87
2023/03/20 09:13:02;;;;;;;16.97;9.67;;;;;;;;;;4420297;32;317440;-87
2023/03/20 09:15:28;;;;;;;19.13;8.53;;;;;;;;;;4409919;32;318707;-87
2023/03/20 09:17:55;;;;;;;10.67;7.03;;;;;;;;;;4420724;32;317342;-87
2023/03/20 09:20:22;;;;;;;10.07;6.13;;;;;;;;;;4408943;32;318528;-89
2023/03/20 09:22:50;;;;;;;11.13;6.60;;;;;;;;;;4419857;32;322584;-86
2023/03/20 09:25:17;;;;;;;8.00;6.20;;;;;;;;;;4408489;32;318240;-86
2023/03/20 09:27:44;;;;;;;12.40;7.67;;;;;;;;;;4419019;32;317142;-87
2023/03/20 09:30:12;;;;;;;8.43;6.53;;;;;;;;;;4420033;32;318281;-86
2023/03/20 09:32:39;;;;;;;17.87;7.23;;;;;;;;;;4409279;32;317619;-86
2023/03/20 09:35:06;;;;;;;16.97;7.20;;;;;;;;;;4419557;32;317421;-86
2023/03/20 09:37:33;;;;;;;10.27;7.17;;;;;;;;;;4408557;32;317471;-87
2023/03/20 09:40:01;;;;;;;11.33;6.83;;;;;;;;;;4418340;32;317505;-86
2023/03/20 09:42:41;;;;;;;11.40;7.03;;;;;;;;;;4415266;32;318233;-88
2023/03/20 09:45:14;;;;;;;9.33;5.73;;;;;;;;;;4432273;32;316205;-86
2023/03/20 09:47:50;;;;;;;9.43;6.17;;;;;;;;;;4413159;32;414614;-87
2023/03/20 09:50:29;;;;;;;12.43;6.10;;;;;;;;;;4412388;32;317073;-86
2023/03/20 09:53:05;;;;;;;9.67;6.13;;;;;;;;;;4429797;32;318143;-90
2023/03/20 09:55:36;;;;;;;7.87;5.80;;;;;;;;;;4421111;32;316157;-87
2023/03/20 09:58:13;;;;;;;12.30;7.20;;;;;;;;;;4428917;32;316987;-87
2023/03/20 10:00:42;;;;;;;27.23;16.43;;;;;;;;;;4419629;32;317544;-89
2023/03/20 10:03:18;;;;;;;13.63;7.50;;;;;;;;;;4429479;32;317076;-88
2023/03/20 10:05:50;;;;;;;9.53;5.77;;;;;;;;;;4420140;32;419738;-88
2023/03/20 10:08:20;;;;;;;9.67;6.50;;;;;;;;;;4420810;32;316535;-88
2023/03/20 10:10:52;;;;;;;10.03;5.70;;;;;;;;;;4431667;32;316293;-88
2023/03/20 10:13:40;;;;;;;13.90;5.07;;;;;;;;;;4410428;32;317371;-88
2023/03/20 10:16:15;;;;;;;8.60;5.62;;;;;;;;;;4420188;32;318146;-88
2023/03/20 10:18:48;;;;;;;13.85;7.10;;;;;;;;;;4405945;32;416930;-88
2023/03/20 10:21:19;;;;;;;15.37;6.43;;;;;;;;;;4413886;32;317544;-86
2023/03/20 10:23:56;;;;;;;11.87;7.13;;;;;;;;;;4420237;32;318269;-88
2023/03/20 10:26:24;;;;;;;11.23;6.30;;;;;;;;;;4410810;32;318329;-88
2023/03/20 10:28:56;;;;;;;15.80;6.60;;;;;;;;;;4419715;32;318254;-88
2023/03/20 10:31:32;;;;;;;11.95;7.30;;;;;;;;;;4410316;32;317691;-88
2023/03/20 10:34:15;;;;;;;15.23;6.93;;;;;;;;;;4420880;32;317860;-88
2023/03/20 10:36:52;;;;;;;15.93;7.47;;;;;;;;;;4409672;32;416979;-88
2023/03/20 10:39:29;;;;;;;10.65;7.40;;;;;;;;;;4414136;32;318141;-88
2023/03/20 10:42:00;;;;;;;14.57;6.95;;;;;;;;;;4424049;32;318194;-88
2023/03/20 10:44:32;;;;;;;10.07;6.22;;;;;;;;;;4413460;32;318429;-87
2023/03/20 10:47:03;;;;;;;13.00;6.60;;;;;;;;;;4423012;32;336082;-88
2023/03/20 10:49:36;;;;;;;14.85;6.72;;;;;;;;;;4412283;32;317695;-87
2023/03/20 10:52:11;;;;;;;15.88;8.75;;;;;;;;;;4421310;32;317701;-89
2023/03/20 10:54:42;;;;;;;11.10;6.20;;;;;;;;;;4411456;32;318779;-88
2023/03/20 10:57:18;;;;;;;11.80;6.53;;;;;;;;;;4421577;32;318174;-89
2023/03/20 10:59:48;;;;;;;14.70;7.50;;;;;;;;;;4409623;32;417185;-89
2023/03/20 11:02:18;;;;;;;9.18;6.50;;;;;;;;;;4414057;32;317793;-87
2023/03/20 11:04:45;;;;;;;9.30;6.18;;;;;;;;;;4423897;32;316683;-88
2023/03/20 11:07:16;;;;;;;13.15;6.57;;;;;;;;;;4422652;32;316367;-90
2023/03/20 11:09:43;;;;;;;7.43;5.75;;;;;;;;;;4408690;32;417157;-90
2023/03/20 11:12:18;;;;;;;11.98;5.57;;;;;;;;;;4421526;32;316437;-90
2023/03/20 11:14:45;;;;;;;8.13;6.07;;;;;;;;;;4409106;32;419491;-87
2023/03/20 11:17:12;;;;;;;10.02;5.37;;;;;;;;;;4422791;32;317715;-91
2023/03/20 11:19:40;;;;;;;11.45;5.68;;;;;;;;;;4412098;32;318246;-88
2023/03/20 11:22:10;;;;;;;9.55;5.50;;;;;;;;;;4421182;32;317477;-90
2023/03/20 11:24:41;;;;;;;8.07;5.28;;;;;;;;;;4412423;32;317701;-88
2023/03/20 11:27:09;;;;;;;10.57;5.15;;;;;;;;;;4423123;32;316441;-89
2023/03/20 11:29:41;;;;;;;8.65;5.22;;;;;;;;;;4410769;32;336748;-90
2023/03/20 11:32:19;;;;;;;12.30;6.60;;;;;;;;;;4422496;32;317339;-91
2023/03/20 11:34:46;;;;;;;11.27;4.47;;;;;;;;;;4408016;32;417335;-90
2023/03/20 11:37:27;;;;;;;7.78;5.05;;;;;;;;;;4421118;32;317468;-87
2023/03/20 11:39:58;;;;;;;12.80;4.28;;;;;;;;;;4407072;32;415817;-90
2023/03/20 11:42:27;;;;;;;5.57;4.12;;;;;;;;;;4410191;32;318094;-89
2023/03/20 11:45:00;;;;;;;10.45;4.57;;;;;;;;;;4421054;32;331228;-88
2023/03/20 11:47:33;;;;;;;11.85;5.07;;;;;;;;;;4409462;32;317875;-88
2023/03/20 11:50:02;;;;;;;12.63;5.35;;;;;;;;;;4420152;32;318878;-88
2023/03/20 11:52:32;;;;;;;16.07;6.13;;;;;;;;;;4409693;32;343148;-90
2023/03/20 11:55:02;;;;;;;10.00;4.78;;;;;;;;;;4420879;32;317605;-88
2023/03/20 11:57:32;;;;;;;7.93;4.50;;;;;;;;;;4410605;32;318355;-86
2023/03/20 12:00:05;;;;;;;10.45;6.20;;;;;;;;;;4419786;32;316526;-90
2023/03/20 12:02:33;;;;;;;9.07;4.40;;;;;;;;;;4409908;32;317413;-90
2023/03/20 12:05:00;;;;;;;10.07;4.57;;;;;;;;;;4421345;32;317503;-88
2023/03/20 12:07:32;;;;;;;5.18;4.22;;;;;;;;;;4410070;32;318512;-88
2023/03/20 12:10:03;;;;;;;8.52;4.05;;;;;;;;;;4421592;32;333324;-89
2023/03/20 12:12:39;;;;;;;10.63;4.85;;;;;;;;;;4411319;32;317439;-88
2023/03/20 12:15:17;;;;;;;8.40;4.35;;;;;;;;;;4420569;32;317732;-89
2023/03/20 12:17:51;;;;;;;7.40;4.40;;;;;;;;;;4408275;32;416083;-90
2023/03/20 12:20:38;;;;;;;9.38;4.80;;;;;;;;;;4419076;32;353865;-89
2023/03/20 12:23:12;;;;;;;5.80;4.87;;;;;;;;;;4418700;32;316795;-89
2023/03/20 12:25:50;;;;;;;11.73;4.93;;;;;;;;;;4399784;32;317336;-87
2023/03/20 12:28:24;;;;;;;8.00;5.20;;;;;;;;;;4421092;32;317874;-88
2023/03/20 12:31:20;;;;;;;5.82;3.92;;;;;;;;;;4409826;32;316650;-89
2023/03/20 12:33:52;;;;;;;12.00;4.12;;;;;;;;;;4411128;32;316956;-90
2023/03/20 12:36:28;;;;;;;7.72;4.15;;;;;;;;;;4421039;32;318369;-89
2023/03/20 12:38:55;;;;;;;9.25;4.35;;;;;;;;;;4410215;32;356003;-89
2023/03/20 12:41:26;;;;;;;6.55;4.62;;;;;;;;;;4421197;32;316451;-90
2023/03/20 12:44:21;;;;;;;6.65;3.55;;;;;;;;;;4409436;32;317288;-90
2023/03/20 12:46:55;;;;;;;6.68;3.47;;;;;;;;;;4381994;32;317131;-90
2023/03/20 12:49:35;;;;;;;6.00;3.47;;;;;;;;;;4419034;32;322682;-90
2023/03/20 12:52:10;;;;;;;7.07;4.60;;;;;;;;;;4411258;32;317246;-90
2023/03/20 12:55:03;;;;;;;7.62;3.65;;;;;;;;;;4419740;32;351388;-90
2023/03/20 12:57:40;;;;;;;7.45;3.75;;;;;;;;;;4396519;32;413218;-88
2023/03/20 13:00:18;;;;;;;7.68;3.03;;;;;;;;;;4406786;32;417466;-90
2023/03/20 13:02:56;;;;;;;4.72;2.87;;;;;;;;;;4409965;32;317323;-89
2023/03/20 13:05:33;;;;;;;8.35;3.00;;;;;;;;;;4419026;32;316557;-89
2023/03/20 13:08:26;;;;;;;4.32;3.08;;;;;;;;;;4420302;32;316440;-89
2023/03/20 13:10:57;;;;;;;5.32;4.00;;;;;;;;;;4407638;32;419501;-89
2023/03/20 13:13:33;;;;;;;7.85;3.75;;;;;;;;;;4410234;32;317100;-90
2023/03/20 13:16:13;;;;;;;10.45;3.53;;;;;;;;;;4420926;32;317251;-89
2023/03/20 13:18:52;;;;;;;6.18;3.50;;;;;;;;;;4411255;32;317852;-88
2023/03/20 13:21:27;;;;;;;6.50;4.00;;;;;;;;;;4421118;32;317357;-90
2023/03/20 13:24:04;;;;;;;6.45;3.10;;;;;;;;;;4407815;32;419701;-89
2023/03/20 13:26:38;;;;;;;5.70;3.33;;;;;;;;;;4408345;32;346872;-90
2023/03/20 13:29:13;;;;;;;4.62;3.10;;;;;;;;;;4420605;32;317314;-90
2023/03/20 13:31:50;;;;;;;6.57;2.87;;;;;;;;;;4396702;32;317300;-91
2023/03/20 13:34:32;;;;;;;4.43;2.37;;;;;;;;;;4404388;32;317195;-89
2023/03/20 13:37:13;;;;;;;3.35;3.00;;;;;;;;;;4405271;32;316534;-89
2023/03/20 13:39:46;;;;;;;9.18;2.78;;;;;;;;;;4420954;32;316479;-89
2023/03/20 13:42:17;;;;;;;15.98;3.05;;;;;;;;;;4409536;32;334652;-90
2023/03/20 13:44:46;;;;;;;5.12;3.20;;;;;;;;;;4420805;32;318763;-89
2023/03/20 13:47:15;;;;;;;4.07;2.90;;;;;;;;;;4409001;32;317140;-90
2023/03/20 13:49:51;;;;;;;4.60;2.90;;;;;;;;;;4420612;32;316555;-91
2023/03/20 13:52:21;;;;;;;10.07;4.07;;;;;;;;;;4409148;32;341842;-89
2023/03/20 13:54:59;;;;;;;9.60;5.60;;;;;;;;;;4420878;32;318587;-90
2023/03/20 13:57:44;;;;;;;5.53;3.45;;;;;;;;;;4407872;32;416569;-90
2023/03/20 14:00:23;;;;;;;5.40;3.15;;;;;;;;;;4410654;32;317171;-91
2023/03/20 14:03:12;;;;;;;5.65;3.12;;;;;;;;;;4421611;32;317124;-91
2023/03/20 14:05:42;;;;;;;5.12;3.25;;;;;;;;;;4409746;32;416967;-89
2023/03/20 14:08:32;;;;;;;4.20;3.08;;;;;;;;;;4412203;32;317368;-89
2023/03/20 14:11:12;;;;;;;6.30;3.10;;;;;;;;;;4406867;32;317298;-90
2023/03/20 14:13:40;;;;;;;7.65;3.00;;;;;;;;;;4423831;32;316501;-88
2023/03/20 14:16:10;;;;;;;5.57;2.60;;;;;;;;;;4410947;32;316560;-89
2023/03/20 14:18:38;;;;;;;4.78;2.85;;;;;;;;;;4423051;32;343268;-90
2023/03/20 14:21:12;;;;;;;7.70;2.85;;;;;;;;;;4411843;32;317278;-90
2023/03/20 14:23:43;;;;;;;4.45;2.60;;;;;;;;;;4422637;32;317330;-89
2023/03/20 14:26:18;;;;;;;8.27;3.08;;;;;;;;;;4413784;32;316569;-90
2023/03/20 14:28:54;;;;;;;8.52;3.17;;;;;;;;;;4423527;32;316531;-90
2023/03/20 14:31:25;;;;;;;18.27;3.92;;;;;;;;;;4414287;32;316465;-90
2023/03/20 14:34:00;;;;;;;9.60;3.92;;;;;;;;;;4423224;32;318533;-90